sensor_id;sensor_type;location;lat;lon;timestamp;P1;durP1;ratioP1;P2;durP2;ratioP2
59468;SDS011;45277;52.768;18.262;2023-05-28T00:01:21;12.85;;;5.43;;
59468;SDS011;45277;52.768;18.262;2023-05-28T00:02:57;12.93;;;5.50;;
59468;SDS011;45277;52.768;18.262;2023-05-28T00:04:30;16.83;;;5.97;;
59468;SDS011;45277;52.768;18.262;2023-05-28T00:06:02;14.88;;;5.80;;
59468;SDS011;45277;52.768;18.262;2023-05-28T00:07:34;14.38;;;6.45;;
59468;SDS011;45277;52.768;18.262;2023-05-28T00:09:07;11.95;;;5.82;;
59468;SDS011;45277;52.768;18.262;2023-05-28T00:10:39;13.65;;;5.65;;
59468;SDS011;45277;52.768;18.262;2023-05-28T00:12:11;13.45;;;5.90;;
59468;SDS011;45277;52.768;18.262;2023-05-28T00:13:43;12.35;;;5.40;;
59468;SDS011;45277;52.768;18.262;2023-05-28T00:15:14;14.25;;;6.30;;
59468;SDS011;45277;52.768;18.262;2023-05-28T00:16:46;11.27;;;5.97;;
59468;SDS011;45277;52.768;18.262;2023-05-28T00:18:17;9.77;;;5.60;;
59468;SDS011;45277;52.768;18.262;2023-05-28T00:19:48;11.63;;;6.30;;
59468;SDS011;45277;52.768;18.262;2023-05-28T00:21:20;13.27;;;5.93;;
59468;SDS011;45277;52.768;18.262;2023-05-28T00:22:51;12.45;;;6.20;;
59468;SDS011;45277;52.768;18.262;2023-05-28T00:24:23;12.35;;;5.65;;
59468;SDS011;45277;52.768;18.262;2023-05-28T00:25:54;14.52;;;5.80;;
59468;SDS011;45277;52.768;18.262;2023-05-28T00:27:26;13.27;;;5.88;;
59468;SDS011;45277;52.768;18.262;2023-05-28T00:28:57;10.45;;;5.35;;
59468;SDS011;45277;52.768;18.262;2023-05-28T00:30:29;13.57;;;5.43;;
59468;SDS011;45277;52.768;18.262;2023-05-28T00:32:00;15.95;;;6.32;;
59468;SDS011;45277;52.768;18.262;2023-05-28T00:33:32;15.57;;;5.57;;
59468;SDS011;45277;52.768;18.262;2023-05-28T00:35:03;14.98;;;6.22;;
59468;SDS011;45277;52.768;18.262;2023-05-28T00:36:35;11.95;;;6.03;;
59468;SDS011;45277;52.768;18.262;2023-05-28T00:38:07;11.40;;;5.32;;
59468;SDS011;45277;52.768;18.262;2023-05-28T00:39:38;23.10;;;6.38;;
59468;SDS011;45277;52.768;18.262;2023-05-28T00:41:10;12.38;;;5.78;;
59468;SDS011;45277;52.768;18.262;2023-05-28T00:42:42;10.50;;;5.30;;
59468;SDS011;45277;52.768;18.262;2023-05-28T00:44:13;12.35;;;5.88;;
59468;SDS011;45277;52.768;18.262;2023-05-28T00:45:45;8.18;;;4.90;;
59468;SDS011;45277;52.768;18.262;2023-05-28T00:47:18;12.55;;;5.78;;
59468;SDS011;45277;52.768;18.262;2023-05-28T00:48:50;12.48;;;5.40;;
59468;SDS011;45277;52.768;18.262;2023-05-28T00:50:21;12.93;;;5.63;;
59468;SDS011;45277;52.768;18.262;2023-05-28T00:51:53;14.70;;;6.13;;
59468;SDS011;45277;52.768;18.262;2023-05-28T00:53:26;14.63;;;6.00;;
59468;SDS011;45277;52.768;18.262;2023-05-28T00:54:57;14.98;;;6.80;;
59468;SDS011;45277;52.768;18.262;2023-05-28T00:56:29;11.80;;;5.72;;
59468;SDS011;45277;52.768;18.262;2023-05-28T00:58:02;11.77;;;6.07;;
59468;SDS011;45277;52.768;18.262;2023-05-28T00:59:38;13.23;;;5.72;;
59468;SDS011;45277;52.768;18.262;2023-05-28T01:01:09;12.35;;;6.00;;
59468;SDS011;45277;52.768;18.262;2023-05-28T01:02:41;11.55;;;5.75;;
59468;SDS011;45277;52.768;18.262;2023-05-28T01:04:13;13.63;;;6.30;;
59468;SDS011;45277;52.768;18.262;2023-05-28T01:05:44;13.65;;;5.40;;
59468;SDS011;45277;52.768;18.262;2023-05-28T01:07:16;12.40;;;5.63;;
59468;SDS011;45277;52.768;18.262;2023-05-28T01:08:48;11.93;;;6.03;;
59468;SDS011;45277;52.768;18.262;2023-05-28T01:10:21;15.02;;;6.20;;
59468;SDS011;45277;52.768;18.262;2023-05-28T01:11:52;14.23;;;5.95;;
59468;SDS011;45277;52.768;18.262;2023-05-28T01:13:25;14.35;;;6.35;;
59468;SDS011;45277;52.768;18.262;2023-05-28T01:14:56;10.52;;;5.63;;
59468;SDS011;45277;52.768;18.262;2023-05-28T01:16:29;11.13;;;6.20;;
59468;SDS011;45277;52.768;18.262;2023-05-28T01:18:01;11.10;;;5.70;;
59468;SDS011;45277;52.768;18.262;2023-05-28T01:19:32;11.82;;;6.07;;
59468;SDS011;45277;52.768;18.262;2023-05-28T01:21:04;12.05;;;6.10;;
59468;SDS011;45277;52.768;18.262;2023-05-28T01:22:37;10.10;;;5.70;;
59468;SDS011;45277;52.768;18.262;2023-05-28T01:24:12;11.18;;;6.05;;
59468;SDS011;45277;52.768;18.262;2023-05-28T01:25:44;11.82;;;5.68;;
59468;SDS011;45277;52.768;18.262;2023-05-28T01:27:16;12.32;;;5.93;;
59468;SDS011;45277;52.768;18.262;2023-05-28T01:28:47;11.05;;;6.68;;
59468;SDS011;45277;52.768;18.262;2023-05-28T01:30:19;14.18;;;6.40;;
59468;SDS011;45277;52.768;18.262;2023-05-28T01:31:51;10.10;;;6.20;;
59468;SDS011;45277;52.768;18.262;2023-05-28T01:33:23;13.77;;;6.32;;
59468;SDS011;45277;52.768;18.262;2023-05-28T01:34:55;18.40;;;6.72;;
59468;SDS011;45277;52.768;18.262;2023-05-28T01:36:29;14.25;;;7.03;;
59468;SDS011;45277;52.768;18.262;2023-05-28T01:38:04;19.23;;;6.68;;
59468;SDS011;45277;52.768;18.262;2023-05-28T01:39:39;13.90;;;7.32;;
59468;SDS011;45277;52.768;18.262;2023-05-28T01:41:14;11.32;;;6.72;;
59468;SDS011;45277;52.768;18.262;2023-05-28T01:42:46;17.38;;;6.90;;
59468;SDS011;45277;52.768;18.262;2023-05-28T01:44:20;14.05;;;6.93;;
59468;SDS011;45277;52.768;18.262;2023-05-28T01:45:54;15.18;;;7.15;;
59468;SDS011;45277;52.768;18.262;2023-05-28T01:47:26;12.73;;;7.10;;
59468;SDS011;45277;52.768;18.262;2023-05-28T01:48:59;11.65;;;6.63;;
59468;SDS011;45277;52.768;18.262;2023-05-28T01:50:31;11.38;;;6.40;;
59468;SDS011;45277;52.768;18.262;2023-05-28T01:52:03;16.15;;;6.95;;
59468;SDS011;45277;52.768;18.262;2023-05-28T01:53:35;13.82;;;6.47;;
59468;SDS011;45277;52.768;18.262;2023-05-28T01:55:06;13.05;;;7.07;;
59468;SDS011;45277;52.768;18.262;2023-05-28T01:56:39;17.38;;;6.70;;
59468;SDS011;45277;52.768;18.262;2023-05-28T01:58:11;11.48;;;6.68;;
59468;SDS011;45277;52.768;18.262;2023-05-28T01:59:42;17.02;;;7.40;;
59468;SDS011;45277;52.768;18.262;2023-05-28T02:01:14;12.65;;;6.45;;
59468;SDS011;45277;52.768;18.262;2023-05-28T02:04:35;13.15;;;7.45;;
59468;SDS011;45277;52.768;18.262;2023-05-28T02:06:07;15.30;;;8.07;;
59468;SDS011;45277;52.768;18.262;2023-05-28T02:07:38;13.75;;;7.15;;
59468;SDS011;45277;52.768;18.262;2023-05-28T02:09:10;14.02;;;7.30;;
59468;SDS011;45277;52.768;18.262;2023-05-28T02:10:41;16.25;;;7.30;;
59468;SDS011;45277;52.768;18.262;2023-05-28T02:12:13;11.57;;;6.90;;
59468;SDS011;45277;52.768;18.262;2023-05-28T02:13:46;15.25;;;7.13;;
59468;SDS011;45277;52.768;18.262;2023-05-28T02:15:19;13.13;;;6.88;;
59468;SDS011;45277;52.768;18.262;2023-05-28T02:16:52;14.60;;;7.07;;
59468;SDS011;45277;52.768;18.262;2023-05-28T02:18:24;15.80;;;7.43;;
59468;SDS011;45277;52.768;18.262;2023-05-28T02:19:55;16.80;;;6.80;;
59468;SDS011;45277;52.768;18.262;2023-05-28T02:21:27;14.98;;;7.82;;
59468;SDS011;45277;52.768;18.262;2023-05-28T02:22:58;14.13;;;7.18;;
59468;SDS011;45277;52.768;18.262;2023-05-28T02:24:30;18.13;;;7.10;;
59468;SDS011;45277;52.768;18.262;2023-05-28T02:26:01;14.13;;;6.88;;
59468;SDS011;45277;52.768;18.262;2023-05-28T02:27:33;13.90;;;7.75;;
59468;SDS011;45277;52.768;18.262;2023-05-28T02:29:06;18.10;;;7.25;;
59468;SDS011;45277;52.768;18.262;2023-05-28T02:30:38;20.90;;;7.68;;
59468;SDS011;45277;52.768;18.262;2023-05-28T02:32:09;14.57;;;7.72;;
59468;SDS011;45277;52.768;18.262;2023-05-28T02:33:40;14.40;;;7.68;;
59468;SDS011;45277;52.768;18.262;2023-05-28T02:35:12;14.95;;;7.05;;
59468;SDS011;45277;52.768;18.262;2023-05-28T02:36:44;18.40;;;8.43;;
59468;SDS011;45277;52.768;18.262;2023-05-28T02:38:15;19.27;;;8.52;;
59468;SDS011;45277;52.768;18.262;2023-05-28T02:39:47;22.98;;;8.73;;
59468;SDS011;45277;52.768;18.262;2023-05-28T02:41:18;21.42;;;8.80;;
59468;SDS011;45277;52.768;18.262;2023-05-28T02:42:50;18.23;;;8.45;;
59468;SDS011;45277;52.768;18.262;2023-05-28T02:44:22;16.38;;;8.13;;
59468;SDS011;45277;52.768;18.262;2023-05-28T02:45:53;16.38;;;7.90;;
59468;SDS011;45277;52.768;18.262;2023-05-28T02:47:24;21.02;;;8.68;;
59468;SDS011;45277;52.768;18.262;2023-05-28T02:48:56;18.98;;;8.52;;
59468;SDS011;45277;52.768;18.262;2023-05-28T02:50:27;17.13;;;8.48;;
59468;SDS011;45277;52.768;18.262;2023-05-28T02:51:59;18.05;;;8.32;;
59468;SDS011;45277;52.768;18.262;2023-05-28T02:53:31;17.52;;;8.02;;
59468;SDS011;45277;52.768;18.262;2023-05-28T02:55:02;19.08;;;8.57;;
59468;SDS011;45277;52.768;18.262;2023-05-28T02:56:34;12.07;;;7.47;;
59468;SDS011;45277;52.768;18.262;2023-05-28T02:58:05;15.82;;;7.88;;
59468;SDS011;45277;52.768;18.262;2023-05-28T02:59:37;16.85;;;7.82;;
59468;SDS011;45277;52.768;18.262;2023-05-28T03:01:08;15.57;;;8.30;;
59468;SDS011;45277;52.768;18.262;2023-05-28T03:02:40;15.52;;;7.50;;
59468;SDS011;45277;52.768;18.262;2023-05-28T03:04:11;18.60;;;7.90;;
59468;SDS011;45277;52.768;18.262;2023-05-28T03:05:43;14.82;;;7.57;;
59468;SDS011;45277;52.768;18.262;2023-05-28T03:07:15;16.63;;;8.35;;
59468;SDS011;45277;52.768;18.262;2023-05-28T03:08:46;16.52;;;8.07;;
59468;SDS011;45277;52.768;18.262;2023-05-28T03:10:17;18.85;;;8.07;;
59468;SDS011;45277;52.768;18.262;2023-05-28T03:11:49;19.35;;;7.90;;
59468;SDS011;45277;52.768;18.262;2023-05-28T03:13:20;18.95;;;8.10;;
59468;SDS011;45277;52.768;18.262;2023-05-28T03:14:52;16.90;;;7.57;;
59468;SDS011;45277;52.768;18.262;2023-05-28T03:16:23;18.08;;;8.63;;
59468;SDS011;45277;52.768;18.262;2023-05-28T03:17:56;21.98;;;7.97;;
59468;SDS011;45277;52.768;18.262;2023-05-28T03:19:28;18.00;;;8.30;;
59468;SDS011;45277;52.768;18.262;2023-05-28T03:20:59;18.65;;;8.77;;
59468;SDS011;45277;52.768;18.262;2023-05-28T03:22:31;24.88;;;8.98;;
59468;SDS011;45277;52.768;18.262;2023-05-28T03:24:02;22.77;;;8.30;;
59468;SDS011;45277;52.768;18.262;2023-05-28T03:25:34;16.75;;;8.20;;
59468;SDS011;45277;52.768;18.262;2023-05-28T03:27:06;17.05;;;8.45;;
59468;SDS011;45277;52.768;18.262;2023-05-28T03:28:37;17.85;;;8.40;;
59468;SDS011;45277;52.768;18.262;2023-05-28T03:30:09;16.55;;;8.63;;
59468;SDS011;45277;52.768;18.262;2023-05-28T03:31:44;19.50;;;9.05;;
59468;SDS011;45277;52.768;18.262;2023-05-28T03:33:16;16.30;;;7.78;;
59468;SDS011;45277;52.768;18.262;2023-05-28T03:34:48;14.48;;;7.97;;
59468;SDS011;45277;52.768;18.262;2023-05-28T03:36:19;16.42;;;8.32;;
59468;SDS011;45277;52.768;18.262;2023-05-28T03:37:50;18.60;;;8.40;;
59468;SDS011;45277;52.768;18.262;2023-05-28T03:39:22;16.95;;;8.38;;
59468;SDS011;45277;52.768;18.262;2023-05-28T03:40:53;19.65;;;9.40;;
59468;SDS011;45277;52.768;18.262;2023-05-28T03:42:25;16.40;;;8.00;;
59468;SDS011;45277;52.768;18.262;2023-05-28T03:43:57;17.88;;;7.95;;
59468;SDS011;45277;52.768;18.262;2023-05-28T03:45:28;16.55;;;8.60;;
59468;SDS011;45277;52.768;18.262;2023-05-28T03:47:00;14.82;;;7.35;;
59468;SDS011;45277;52.768;18.262;2023-05-28T03:48:31;17.15;;;7.40;;
59468;SDS011;45277;52.768;18.262;2023-05-28T03:50:03;15.02;;;7.57;;
59468;SDS011;45277;52.768;18.262;2023-05-28T03:51:35;14.60;;;8.30;;
59468;SDS011;45277;52.768;18.262;2023-05-28T03:53:07;17.80;;;7.82;;
59468;SDS011;45277;52.768;18.262;2023-05-28T03:54:38;16.30;;;7.65;;
59468;SDS011;45277;52.768;18.262;2023-05-28T03:56:10;16.10;;;7.50;;
59468;SDS011;45277;52.768;18.262;2023-05-28T03:57:41;15.32;;;7.35;;
59468;SDS011;45277;52.768;18.262;2023-05-28T03:59:13;15.40;;;7.20;;
59468;SDS011;45277;52.768;18.262;2023-05-28T04:00:44;14.93;;;7.53;;
59468;SDS011;45277;52.768;18.262;2023-05-28T04:02:16;17.58;;;7.90;;
59468;SDS011;45277;52.768;18.262;2023-05-28T04:03:48;13.35;;;6.88;;
59468;SDS011;45277;52.768;18.262;2023-05-28T04:05:19;22.60;;;7.53;;
59468;SDS011;45277;52.768;18.262;2023-05-28T04:06:51;15.68;;;7.25;;
59468;SDS011;45277;52.768;18.262;2023-05-28T04:08:22;14.23;;;7.80;;
59468;SDS011;45277;52.768;18.262;2023-05-28T04:09:53;12.52;;;7.45;;
59468;SDS011;45277;52.768;18.262;2023-05-28T04:11:25;12.52;;;7.70;;
59468;SDS011;45277;52.768;18.262;2023-05-28T04:13:00;13.30;;;6.88;;
59468;SDS011;45277;52.768;18.262;2023-05-28T04:14:31;14.55;;;7.15;;
59468;SDS011;45277;52.768;18.262;2023-05-28T04:16:03;16.13;;;7.15;;
59468;SDS011;45277;52.768;18.262;2023-05-28T04:17:34;12.15;;;7.20;;
59468;SDS011;45277;52.768;18.262;2023-05-28T04:19:07;14.50;;;7.22;;
59468;SDS011;45277;52.768;18.262;2023-05-28T04:20:39;19.88;;;7.50;;
59468;SDS011;45277;52.768;18.262;2023-05-28T04:22:10;12.77;;;6.90;;
59468;SDS011;45277;52.768;18.262;2023-05-28T04:23:42;17.45;;;7.18;;
59468;SDS011;45277;52.768;18.262;2023-05-28T04:25:13;14.45;;;6.72;;
59468;SDS011;45277;52.768;18.262;2023-05-28T04:26:45;17.00;;;7.40;;
59468;SDS011;45277;52.768;18.262;2023-05-28T04:28:16;14.20;;;6.53;;
59468;SDS011;45277;52.768;18.262;2023-05-28T04:29:48;13.95;;;6.93;;
59468;SDS011;45277;52.768;18.262;2023-05-28T04:31:20;14.38;;;7.18;;
59468;SDS011;45277;52.768;18.262;2023-05-28T04:32:51;13.23;;;6.07;;
59468;SDS011;45277;52.768;18.262;2023-05-28T04:34:23;10.43;;;5.95;;
59468;SDS011;45277;52.768;18.262;2023-05-28T04:35:55;16.13;;;6.60;;
59468;SDS011;45277;52.768;18.262;2023-05-28T04:37:30;12.05;;;5.78;;
59468;SDS011;45277;52.768;18.262;2023-05-28T04:39:03;14.50;;;5.75;;
59468;SDS011;45277;52.768;18.262;2023-05-28T04:40:35;11.73;;;6.50;;
59468;SDS011;45277;52.768;18.262;2023-05-28T04:42:06;16.70;;;6.35;;
59468;SDS011;45277;52.768;18.262;2023-05-28T04:43:40;10.60;;;6.03;;
59468;SDS011;45277;52.768;18.262;2023-05-28T04:45:12;13.20;;;6.20;;
59468;SDS011;45277;52.768;18.262;2023-05-28T04:46:43;12.98;;;5.60;;
59468;SDS011;45277;52.768;18.262;2023-05-28T04:48:16;17.40;;;7.32;;
59468;SDS011;45277;52.768;18.262;2023-05-28T04:49:47;11.85;;;5.65;;
59468;SDS011;45277;52.768;18.262;2023-05-28T04:51:19;13.48;;;5.70;;
59468;SDS011;45277;52.768;18.262;2023-05-28T04:52:51;13.73;;;5.88;;
59468;SDS011;45277;52.768;18.262;2023-05-28T04:54:23;11.57;;;5.82;;
59468;SDS011;45277;52.768;18.262;2023-05-28T04:55:55;10.38;;;5.18;;
59468;SDS011;45277;52.768;18.262;2023-05-28T04:57:26;10.70;;;5.10;;
59468;SDS011;45277;52.768;18.262;2023-05-28T04:58:58;16.27;;;5.50;;
59468;SDS011;45277;52.768;18.262;2023-05-28T05:00:29;9.63;;;4.97;;
59468;SDS011;45277;52.768;18.262;2023-05-28T05:02:02;13.35;;;5.50;;
59468;SDS011;45277;52.768;18.262;2023-05-28T05:03:35;8.43;;;5.03;;
59468;SDS011;45277;52.768;18.262;2023-05-28T05:05:06;10.63;;;4.50;;
59468;SDS011;45277;52.768;18.262;2023-05-28T05:06:38;8.57;;;4.10;;
59468;SDS011;45277;52.768;18.262;2023-05-28T05:08:10;10.10;;;4.60;;
59468;SDS011;45277;52.768;18.262;2023-05-28T05:09:43;7.15;;;4.13;;
59468;SDS011;45277;52.768;18.262;2023-05-28T05:11:15;8.38;;;4.10;;
59468;SDS011;45277;52.768;18.262;2023-05-28T05:12:47;9.63;;;4.18;;
59468;SDS011;45277;52.768;18.262;2023-05-28T05:14:18;7.47;;;4.07;;
59468;SDS011;45277;52.768;18.262;2023-05-28T05:15:50;14.15;;;4.45;;
59468;SDS011;45277;52.768;18.262;2023-05-28T05:17:21;8.75;;;4.10;;
59468;SDS011;45277;52.768;18.262;2023-05-28T05:18:53;8.70;;;4.82;;
59468;SDS011;45277;52.768;18.262;2023-05-28T05:20:25;9.23;;;3.90;;
59468;SDS011;45277;52.768;18.262;2023-05-28T05:21:57;8.20;;;3.95;;
59468;SDS011;45277;52.768;18.262;2023-05-28T05:23:29;9.32;;;4.28;;
59468;SDS011;45277;52.768;18.262;2023-05-28T05:25:00;9.55;;;4.35;;
59468;SDS011;45277;52.768;18.262;2023-05-28T05:26:32;10.25;;;3.92;;
59468;SDS011;45277;52.768;18.262;2023-05-28T05:28:03;7.47;;;4.22;;
59468;SDS011;45277;52.768;18.262;2023-05-28T05:29:35;8.55;;;4.13;;
59468;SDS011;45277;52.768;18.262;2023-05-28T05:31:06;9.52;;;3.95;;
59468;SDS011;45277;52.768;18.262;2023-05-28T05:32:38;6.82;;;3.85;;
59468;SDS011;45277;52.768;18.262;2023-05-28T05:34:09;12.90;;;4.50;;
59468;SDS011;45277;52.768;18.262;2023-05-28T05:35:41;6.07;;;3.97;;
59468;SDS011;45277;52.768;18.262;2023-05-28T05:37:12;7.82;;;4.60;;
59468;SDS011;45277;52.768;18.262;2023-05-28T05:38:44;8.90;;;4.10;;
59468;SDS011;45277;52.768;18.262;2023-05-28T05:40:16;9.07;;;3.95;;
59468;SDS011;45277;52.768;18.262;2023-05-28T05:41:47;7.07;;;4.18;;
59468;SDS011;45277;52.768;18.262;2023-05-28T05:43:19;7.95;;;4.10;;
59468;SDS011;45277;52.768;18.262;2023-05-28T05:44:52;9.05;;;3.80;;
59468;SDS011;45277;52.768;18.262;2023-05-28T05:46:23;11.00;;;4.13;;
59468;SDS011;45277;52.768;18.262;2023-05-28T05:47:55;14.13;;;4.35;;
59468;SDS011;45277;52.768;18.262;2023-05-28T05:49:27;7.28;;;4.38;;
59468;SDS011;45277;52.768;18.262;2023-05-28T05:50:58;7.45;;;3.80;;
59468;SDS011;45277;52.768;18.262;2023-05-28T05:52:32;6.90;;;3.83;;
59468;SDS011;45277;52.768;18.262;2023-05-28T05:54:03;12.07;;;3.60;;
59468;SDS011;45277;52.768;18.262;2023-05-28T05:55:35;5.38;;;3.13;;
59468;SDS011;45277;52.768;18.262;2023-05-28T05:57:06;7.00;;;4.13;;
59468;SDS011;45277;52.768;18.262;2023-05-28T05:58:39;5.20;;;3.13;;
59468;SDS011;45277;52.768;18.262;2023-05-28T06:00:10;5.55;;;3.20;;
59468;SDS011;45277;52.768;18.262;2023-05-28T06:01:44;5.22;;;3.28;;
59468;SDS011;45277;52.768;18.262;2023-05-28T06:03:15;6.35;;;3.10;;
59468;SDS011;45277;52.768;18.262;2023-05-28T06:04:47;6.57;;;3.22;;
59468;SDS011;45277;52.768;18.262;2023-05-28T06:06:18;7.13;;;3.42;;
59468;SDS011;45277;52.768;18.262;2023-05-28T06:07:50;5.47;;;3.70;;
59468;SDS011;45277;52.768;18.262;2023-05-28T06:09:21;7.90;;;3.13;;
59468;SDS011;45277;52.768;18.262;2023-05-28T06:10:54;9.05;;;3.92;;
59468;SDS011;45277;52.768;18.262;2023-05-28T06:12:25;6.25;;;3.72;;
59468;SDS011;45277;52.768;18.262;2023-05-28T06:13:57;6.40;;;3.47;;
59468;SDS011;45277;52.768;18.262;2023-05-28T06:15:29;21.17;;;3.67;;
59468;SDS011;45277;52.768;18.262;2023-05-28T06:17:02;14.20;;;3.60;;
59468;SDS011;45277;52.768;18.262;2023-05-28T06:18:34;7.10;;;3.50;;
59468;SDS011;45277;52.768;18.262;2023-05-28T06:20:07;7.93;;;3.50;;
59468;SDS011;45277;52.768;18.262;2023-05-28T06:21:39;5.90;;;3.40;;
59468;SDS011;45277;52.768;18.262;2023-05-28T06:23:10;8.32;;;3.25;;
59468;SDS011;45277;52.768;18.262;2023-05-28T06:24:42;6.45;;;3.40;;
59468;SDS011;45277;52.768;18.262;2023-05-28T06:26:15;6.35;;;3.08;;
59468;SDS011;45277;52.768;18.262;2023-05-28T06:27:46;7.40;;;3.30;;
59468;SDS011;45277;52.768;18.262;2023-05-28T06:29:19;7.03;;;3.17;;
59468;SDS011;45277;52.768;18.262;2023-05-28T06:30:50;9.20;;;3.55;;
59468;SDS011;45277;52.768;18.262;2023-05-28T06:32:22;7.07;;;3.00;;
59468;SDS011;45277;52.768;18.262;2023-05-28T06:33:53;11.25;;;3.45;;
59468;SDS011;45277;52.768;18.262;2023-05-28T06:35:25;6.88;;;2.75;;
59468;SDS011;45277;52.768;18.262;2023-05-28T06:36:57;14.93;;;3.35;;
59468;SDS011;45277;52.768;18.262;2023-05-28T06:38:29;11.15;;;2.42;;
59468;SDS011;45277;52.768;18.262;2023-05-28T06:40:01;4.30;;;2.70;;
59468;SDS011;45277;52.768;18.262;2023-05-28T06:41:36;6.93;;;2.50;;
59468;SDS011;45277;52.768;18.262;2023-05-28T06:43:08;4.75;;;2.55;;
59468;SDS011;45277;52.768;18.262;2023-05-28T06:44:39;6.28;;;2.33;;
59468;SDS011;45277;52.768;18.262;2023-05-28T06:46:11;6.68;;;2.60;;
59468;SDS011;45277;52.768;18.262;2023-05-28T06:47:43;6.38;;;2.47;;
59468;SDS011;45277;52.768;18.262;2023-05-28T06:49:15;3.58;;;2.20;;
59468;SDS011;45277;52.768;18.262;2023-05-28T06:50:47;3.45;;;2.15;;
59468;SDS011;45277;52.768;18.262;2023-05-28T06:52:19;5.68;;;2.20;;
59468;SDS011;45277;52.768;18.262;2023-05-28T06:53:51;5.78;;;2.13;;
59468;SDS011;45277;52.768;18.262;2023-05-28T06:55:22;5.10;;;2.00;;
59468;SDS011;45277;52.768;18.262;2023-05-28T06:56:54;10.35;;;2.40;;
59468;SDS011;45277;52.768;18.262;2023-05-28T06:58:26;4.55;;;2.65;;
59468;SDS011;45277;52.768;18.262;2023-05-28T06:59:58;7.75;;;2.10;;
59468;SDS011;45277;52.768;18.262;2023-05-28T07:01:30;4.80;;;1.95;;
59468;SDS011;45277;52.768;18.262;2023-05-28T07:03:02;6.72;;;2.35;;
59468;SDS011;45277;52.768;18.262;2023-05-28T07:04:34;5.75;;;2.22;;
59468;SDS011;45277;52.768;18.262;2023-05-28T07:06:06;4.78;;;2.40;;
59468;SDS011;45277;52.768;18.262;2023-05-28T07:07:38;8.68;;;2.60;;
59468;SDS011;45277;52.768;18.262;2023-05-28T07:09:09;5.15;;;2.20;;
59468;SDS011;45277;52.768;18.262;2023-05-28T07:10:43;2.80;;;1.95;;
59468;SDS011;45277;52.768;18.262;2023-05-28T07:12:15;4.15;;;2.10;;
59468;SDS011;45277;52.768;18.262;2023-05-28T07:13:46;2.35;;;2.00;;
59468;SDS011;45277;52.768;18.262;2023-05-28T07:15:19;3.75;;;1.98;;
59468;SDS011;45277;52.768;18.262;2023-05-28T07:16:52;3.53;;;2.10;;
59468;SDS011;45277;52.768;18.262;2023-05-28T07:18:24;4.90;;;1.92;;
59468;SDS011;45277;52.768;18.262;2023-05-28T07:19:57;3.25;;;2.45;;
59468;SDS011;45277;52.768;18.262;2023-05-28T07:21:28;2.58;;;2.00;;
59468;SDS011;45277;52.768;18.262;2023-05-28T07:23:00;3.47;;;1.90;;
59468;SDS011;45277;52.768;18.262;2023-05-28T07:24:32;12.50;;;2.35;;
59468;SDS011;45277;52.768;18.262;2023-05-28T07:26:03;11.82;;;2.42;;
59468;SDS011;45277;52.768;18.262;2023-05-28T07:27:34;4.88;;;1.80;;
59468;SDS011;45277;52.768;18.262;2023-05-28T07:29:06;5.38;;;2.00;;
59468;SDS011;45277;52.768;18.262;2023-05-28T07:30:38;4.97;;;1.90;;
59468;SDS011;45277;52.768;18.262;2023-05-28T07:32:09;4.18;;;1.80;;
59468;SDS011;45277;52.768;18.262;2023-05-28T07:33:41;4.60;;;1.75;;
59468;SDS011;45277;52.768;18.262;2023-05-28T07:35:13;3.75;;;2.20;;
59468;SDS011;45277;52.768;18.262;2023-05-28T07:36:44;4.60;;;2.58;;
59468;SDS011;45277;52.768;18.262;2023-05-28T07:38:16;2.95;;;2.00;;
59468;SDS011;45277;52.768;18.262;2023-05-28T07:39:48;4.22;;;2.10;;
59468;SDS011;45277;52.768;18.262;2023-05-28T07:41:19;3.88;;;1.90;;
59468;SDS011;45277;52.768;18.262;2023-05-28T07:42:52;3.50;;;2.00;;
59468;SDS011;45277;52.768;18.262;2023-05-28T07:44:23;4.95;;;1.90;;
59468;SDS011;45277;52.768;18.262;2023-05-28T07:45:56;4.10;;;2.10;;
59468;SDS011;45277;52.768;18.262;2023-05-28T07:47:27;10.00;;;2.15;;
59468;SDS011;45277;52.768;18.262;2023-05-28T07:48:59;6.45;;;1.88;;
59468;SDS011;45277;52.768;18.262;2023-05-28T07:50:30;6.90;;;1.90;;
59468;SDS011;45277;52.768;18.262;2023-05-28T07:52:02;2.30;;;1.75;;
59468;SDS011;45277;52.768;18.262;2023-05-28T07:53:34;9.75;;;2.03;;
59468;SDS011;45277;52.768;18.262;2023-05-28T07:55:06;2.53;;;1.92;;
59468;SDS011;45277;52.768;18.262;2023-05-28T07:56:38;4.53;;;1.80;;
59468;SDS011;45277;52.768;18.262;2023-05-28T07:58:10;3.72;;;1.70;;
59468;SDS011;45277;52.768;18.262;2023-05-28T07:59:43;2.72;;;1.92;;
59468;SDS011;45277;52.768;18.262;2023-05-28T08:01:15;2.75;;;1.60;;
59468;SDS011;45277;52.768;18.262;2023-05-28T08:02:46;2.17;;;1.50;;
59468;SDS011;45277;52.768;18.262;2023-05-28T08:04:18;2.85;;;1.77;;
59468;SDS011;45277;52.768;18.262;2023-05-28T08:05:50;8.23;;;1.80;;
59468;SDS011;45277;52.768;18.262;2023-05-28T08:07:22;6.53;;;1.70;;
59468;SDS011;45277;52.768;18.262;2023-05-28T08:08:53;2.85;;;1.48;;
59468;SDS011;45277;52.768;18.262;2023-05-28T08:10:25;4.70;;;1.70;;
59468;SDS011;45277;52.768;18.262;2023-05-28T08:11:57;3.72;;;1.80;;
59468;SDS011;45277;52.768;18.262;2023-05-28T08:13:28;7.40;;;2.10;;
59468;SDS011;45277;52.768;18.262;2023-05-28T08:15:00;2.97;;;1.85;;
59468;SDS011;45277;52.768;18.262;2023-05-28T08:16:32;5.32;;;2.08;;
59468;SDS011;45277;52.768;18.262;2023-05-28T08:18:03;3.22;;;1.88;;
59468;SDS011;45277;52.768;18.262;2023-05-28T08:19:35;2.75;;;1.90;;
59468;SDS011;45277;52.768;18.262;2023-05-28T08:21:07;4.95;;;1.58;;
59468;SDS011;45277;52.768;18.262;2023-05-28T08:22:38;5.07;;;1.75;;
59468;SDS011;45277;52.768;18.262;2023-05-28T08:24:11;2.22;;;1.73;;
59468;SDS011;45277;52.768;18.262;2023-05-28T08:25:42;1.90;;;1.70;;
59468;SDS011;45277;52.768;18.262;2023-05-28T08:27:14;6.05;;;2.05;;
59468;SDS011;45277;52.768;18.262;2023-05-28T08:28:46;6.47;;;1.73;;
59468;SDS011;45277;52.768;18.262;2023-05-28T08:30:18;3.58;;;1.80;;
59468;SDS011;45277;52.768;18.262;2023-05-28T08:31:49;4.40;;;1.92;;
59468;SDS011;45277;52.768;18.262;2023-05-28T08:33:22;3.53;;;1.92;;
59468;SDS011;45277;52.768;18.262;2023-05-28T08:34:54;4.88;;;1.80;;
59468;SDS011;45277;52.768;18.262;2023-05-28T08:36:25;2.53;;;1.90;;
59468;SDS011;45277;52.768;18.262;2023-05-28T08:37:57;4.70;;;1.80;;
59468;SDS011;45277;52.768;18.262;2023-05-28T08:39:29;4.53;;;1.70;;
59468;SDS011;45277;52.768;18.262;2023-05-28T08:41:01;4.40;;;1.60;;
59468;SDS011;45277;52.768;18.262;2023-05-28T08:42:34;4.57;;;1.90;;
59468;SDS011;45277;52.768;18.262;2023-05-28T08:44:06;3.42;;;2.00;;
59468;SDS011;45277;52.768;18.262;2023-05-28T08:45:37;2.63;;;2.00;;
59468;SDS011;45277;52.768;18.262;2023-05-28T08:47:09;5.13;;;1.88;;
59468;SDS011;45277;52.768;18.262;2023-05-28T08:48:41;3.17;;;2.25;;
59468;SDS011;45277;52.768;18.262;2023-05-28T08:50:13;4.50;;;2.30;;
59468;SDS011;45277;52.768;18.262;2023-05-28T08:51:48;2.40;;;1.65;;
59468;SDS011;45277;52.768;18.262;2023-05-28T08:53:22;2.75;;;1.70;;
59468;SDS011;45277;52.768;18.262;2023-05-28T08:54:57;3.58;;;1.60;;
59468;SDS011;45277;52.768;18.262;2023-05-28T08:56:32;4.70;;;2.00;;
59468;SDS011;45277;52.768;18.262;2023-05-28T08:58:03;2.67;;;1.80;;
59468;SDS011;45277;52.768;18.262;2023-05-28T08:59:35;3.58;;;2.00;;
59468;SDS011;45277;52.768;18.262;2023-05-28T09:01:08;2.53;;;1.92;;
59468;SDS011;45277;52.768;18.262;2023-05-28T09:02:40;5.30;;;2.00;;